Tampa, Florida
Current Conditions -  °F | °C
As of 4:53 AM on Sunday 23 Nov 2014 (Local Time) from KTPA Reporting Station
Broken Clouds Broken Clouds  
Wind Chill: 22°   Ceiling: 5000
Heat Index: 22°   Visibility: 9mi
Dew Point: 20°   Wind: 6mph
Humidity: 90%   Direction: 140°SE
Pressure: 29.99"   Gusts: NA
Location:  27.95°N, 82.46°W
Report Text: KTPA 230953Z 14005KT 9SM SCT013 SCT024 BKN050 22/20 A2999 RMK AO2 SLP154 T02170200
Loading
Personal Weather Stations






























Interactive Weather Map New forecast layout! Learn more

10-Day Weather Forecast

Advertisements
Track Severe Weather on mobile